Time;durP1;ratioP1;P1;durP2;ratioP2;P2;SDS_P1;SDS_P2;PMS_P1;PMS_P2;Temp;Humidity;BMP_temperature;BMP_pressure;BME280_temperature;BME280_humidity;BME280_pressure;Samples;Min_cycle;Max_cycle;Signal;HPM_P1;HPM_P2
2022/11/17 07:17:06;;;;;;;8.57;2.20;;;18.80;52.20;;;;;;4910965;29;20514;-70
2022/11/17 07:19:31;;;;;;;3.80;1.80;;;18.80;52.20;;;;;;4896676;29;20048;-72
2022/11/17 07:21:58;;;;;;;6.28;2.10;;;18.80;52.30;;;;;;4903485;29;20118;-71
2022/11/17 07:24:23;;;;;;;8.07;1.80;;;18.80;52.30;;;;;;4903061;29;20039;-70
2022/11/17 07:26:49;;;;;;;5.85;2.00;;;18.70;52.30;;;;;;4924349;29;20043;-72
2022/11/17 07:29:15;;;;;;;3.58;1.88;;;18.70;52.30;;;;;;4929067;29;20056;-71
2022/11/17 07:31:40;;;;;;;2.20;1.60;;;18.70;52.30;;;;;;4928495;29;20055;-72
2022/11/17 07:34:06;;;;;;;3.10;1.50;;;18.70;52.40;;;;;;4911339;29;20058;-71
2022/11/17 07:36:32;;;;;;;4.50;2.10;;;18.70;52.30;;;;;;4929014;29;20059;-72
2022/11/17 07:38:57;;;;;;;5.45;1.90;;;18.70;52.30;;;;;;4928647;29;20050;-72
2022/11/17 07:41:23;;;;;;;2.45;1.80;;;18.70;52.30;;;;;;4913172;29;20035;-72
2022/11/17 07:43:49;;;;;;;2.58;1.80;;;18.70;52.30;;;;;;4928797;29;20483;-72
2022/11/17 07:46:14;;;;;;;5.30;2.33;;;18.70;52.30;;;;;;4929325;29;20449;-70
2022/11/17 07:48:42;;;;;;;10.85;1.70;;;18.70;52.30;;;;;;4928697;29;20116;-72
2022/11/17 07:51:08;;;;;;;5.45;1.70;;;18.70;52.30;;;;;;4929417;29;20527;-71
2022/11/17 07:53:34;;;;;;;3.92;1.60;;;18.70;52.20;;;;;;4927225;29;20500;-71
2022/11/17 07:56:05;;;;;;;4.43;1.60;;;18.70;52.20;;;;;;4928932;29;20388;-71
2022/11/17 07:58:31;;;;;;;5.15;1.70;;;18.70;52.10;;;;;;4912348;29;20055;-70
2022/11/17 08:00:56;;;;;;;2.88;1.70;;;18.70;52.10;;;;;;4928935;29;20066;-71
2022/11/17 08:03:23;;;;;;;5.88;1.50;;;18.80;52.20;;;;;;4929428;29;20035;-71
2022/11/17 08:05:49;;;;;;;6.18;1.80;;;18.70;52.10;;;;;;4911640;29;20142;-70
2022/11/17 08:08:14;;;;;;;1.23;1.13;;;18.70;52.10;;;;;;4927682;29;20119;-73
2022/11/17 08:10:41;;;;;;;3.40;1.55;;;18.70;52.10;;;;;;4925794;29;20436;-70
2022/11/17 08:13:07;;;;;;;2.05;1.48;;;18.80;52.10;;;;;;4911136;29;20500;-71
2022/11/17 08:15:34;;;;;;;10.27;1.77;;;18.70;52.80;;;;;;4925695;29;20048;-70
2022/11/17 08:18:01;;;;;;;3.28;1.60;;;18.70;52.00;;;;;;4925043;29;20090;-70
2022/11/17 08:20:28;;;;;;;5.75;1.20;;;18.70;52.00;;;;;;4916613;29;20062;-71
2022/11/17 08:22:54;;;;;;;3.45;1.20;;;18.80;52.00;;;;;;4925596;29;20039;-70
2022/11/17 08:25:22;;;;;;;3.72;1.40;;;18.80;52.00;;;;;;4928319;29;20086;-70
2022/11/17 08:27:50;;;;;;;3.13;1.30;;;18.70;51.90;;;;;;4899584;29;20496;-71
2022/11/17 08:30:18;;;;;;;2.47;1.30;;;18.70;51.90;;;;;;4932565;29;20048;-73
2022/11/17 08:32:50;;;;;;;3.60;1.73;;;18.80;51.90;;;;;;4902632;29;20525;-70
2022/11/17 08:35:17;;;;;;;3.20;1.48;;;18.80;51.90;;;;;;4931600;29;20047;-71
2022/11/17 08:37:43;;;;;;;2.15;1.38;;;18.80;51.90;;;;;;4931282;29;20460;-71
2022/11/17 08:40:10;;;;;;;2.47;1.40;;;18.80;51.80;;;;;;4931768;29;20038;-71
2022/11/17 08:42:36;;;;;;;3.33;1.45;;;18.80;51.80;;;;;;4931070;29;20047;-72
2022/11/17 08:45:02;;;;;;;5.18;1.40;;;18.80;51.80;;;;;;4914032;29;20062;-69
2022/11/17 08:47:28;;;;;;;3.88;1.40;;;18.80;51.80;;;;;;4925831;29;20126;-69
2022/11/17 08:49:54;;;;;;;4.82;1.30;;;18.90;51.70;;;;;;4930806;29;20046;-69
2022/11/17 08:52:20;;;;;;;3.10;1.30;;;18.90;51.70;;;;;;4903377;29;20052;-70
2022/11/17 08:54:46;;;;;;;2.58;1.40;;;18.90;51.70;;;;;;4927363;29;20067;-70
2022/11/17 08:57:11;;;;;;;3.85;1.30;;;18.90;51.60;;;;;;4930781;29;20507;-70
2022/11/17 08:59:37;;;;;;;2.50;1.60;;;18.90;51.60;;;;;;4925956;29;20079;-71
2022/11/17 09:02:02;;;;;;;1.30;1.20;;;18.90;51.60;;;;;;4930700;29;20040;-70
2022/11/17 09:04:28;;;;;;;4.40;1.23;;;18.90;51.60;;;;;;4914544;29;20386;-68
2022/11/17 09:06:53;;;;;;;3.85;1.60;;;18.90;51.50;;;;;;4930596;29;20043;-68
2022/11/17 09:09:19;;;;;;;2.67;1.42;;;18.90;51.50;;;;;;4930347;29;20043;-71
2022/11/17 09:11:44;;;;;;;1.63;1.35;;;18.90;51.50;;;;;;4897628;29;20460;-69
2022/11/17 09:14:10;;;;;;;1.42;1.30;;;18.90;51.50;;;;;;4930812;29;20122;-70
2022/11/17 09:16:36;;;;;;;1.83;1.15;;;18.90;51.50;;;;;;4926647;29;20079;-72
2022/11/17 09:19:02;;;;;;;3.10;1.63;;;18.90;51.40;;;;;;4930045;29;20043;-70
2022/11/17 09:21:30;;;;;;;1.35;1.25;;;18.90;51.40;;;;;;4914601;29;20098;-67
2022/11/17 09:23:55;;;;;;;1.85;1.20;;;18.90;51.40;;;;;;4929297;29;20043;-69
2022/11/17 09:26:21;;;;;;;3.38;1.50;;;18.90;51.30;;;;;;4931475;29;20146;-72
2022/11/17 09:28:47;;;;;;;1.40;1.17;;;19.00;51.40;;;;;;4930226;29;20564;-70
2022/11/17 09:31:19;;;;;;;4.25;1.33;;;19.00;51.30;;;;;;4914399;29;20131;-70
2022/11/17 09:33:45;;;;;;;1.58;1.27;;;19.00;51.30;;;;;;4931197;29;20203;-71
2022/11/17 09:36:13;;;;;;;1.90;1.10;;;19.00;51.30;;;;;;4911001;29;20039;-73
2022/11/17 09:38:39;;;;;;;2.33;1.10;;;19.00;51.20;;;;;;4931229;29;20085;-70
2022/11/17 09:41:20;;;;;;;1.95;1.00;;;19.00;51.20;;;;;;4929857;29;20499;-74
2022/11/17 09:44:10;;;;;;;2.17;1.30;;;19.00;51.10;;;;;;4898349;29;20052;-73
2022/11/17 09:47:04;;;;;;;2.22;1.20;;;19.00;51.10;;;;;;4931607;29;20119;-67
2022/11/17 09:50:01;;;;;;;2.78;1.40;;;19.00;51.10;;;;;;4913210;29;20056;-72
2022/11/17 09:52:45;;;;;;;2.65;1.17;;;19.00;51.10;;;;;;4928194;29;20040;-69
2022/11/17 09:55:29;;;;;;;1.80;1.13;;;19.00;51.00;;;;;;4918386;29;20106;-69
2022/11/17 09:58:10;;;;;;;1.73;1.08;;;19.00;51.00;;;;;;4928653;29;20047;-71
2022/11/17 10:00:39;;;;;;;2.03;1.10;;;19.00;51.00;;;;;;4931728;29;20078;-71
2022/11/17 10:03:17;;;;;;;1.63;1.10;;;19.00;51.00;;;;;;4923706;29;20036;-69
2022/11/17 10:05:43;;;;;;;2.45;1.17;;;19.00;51.00;;;;;;4919436;29;20522;-71
2022/11/17 10:08:14;;;;;;;1.88;1.00;;;19.00;51.00;;;;;;4922457;29;20563;-70
2022/11/17 10:10:46;;;;;;;4.72;1.42;;;19.00;51.00;;;;;;4908557;29;20040;-71
2022/11/17 10:13:25;;;;;;;5.13;1.30;;;19.00;51.00;;;;;;4910549;29;21044;-72
2022/11/17 10:16:04;;;;;;;1.60;1.02;;;19.00;51.00;;;;;;4896679;29;20179;-71
2022/11/17 10:18:35;;;;;;;1.73;1.15;;;19.00;51.00;;;;;;4895741;29;20063;-73
2022/11/17 10:21:02;;;;;;;4.95;1.20;;;19.00;51.00;;;;;;4921982;29;20040;-73
2022/11/17 10:23:55;;;;;;;4.30;1.30;;;19.10;51.10;;;;;;4886921;29;20502;-73
2022/11/17 10:26:21;;;;;;;3.17;1.30;;;19.10;51.10;;;;;;4882101;29;20056;-71
2022/11/17 10:28:47;;;;;;;4.32;1.20;;;19.10;51.10;;;;;;4923614;29;20036;-72
2022/11/17 10:31:22;;;;;;;4.00;1.10;;;19.10;51.10;;;;;;4910541;29;20187;-74
2022/11/17 10:33:51;;;;;;;2.75;1.10;;;19.10;51.10;;;;;;4903378;29;20052;-73
2022/11/17 10:36:29;;;;;;;2.35;1.20;;;19.10;51.10;;;;;;4908176;29;20510;-73
2022/11/17 10:38:59;;;;;;;3.05;1.23;;;19.20;51.10;;;;;;4899782;29;20131;-72
2022/11/17 10:41:38;;;;;;;2.10;1.17;;;19.20;51.00;;;;;;4924682;29;20036;-73
2022/11/17 10:44:13;;;;;;;4.13;1.10;;;19.20;51.10;;;;;;4928227;29;20051;-73
2022/11/17 10:47:02;;;;;;;2.03;1.13;;;19.20;51.00;;;;;;4928522;29;20051;-72
2022/11/17 10:49:38;;;;;;;5.03;1.10;;;19.20;51.10;;;;;;4926125;29;20055;-74
2022/11/17 10:52:12;;;;;;;1.00;0.90;;;19.20;51.00;;;;;;4885041;29;20048;-72
2022/11/17 10:54:38;;;;;;;1.20;1.00;;;19.20;51.00;;;;;;4906512;29;20118;-74
2022/11/17 10:57:18;;;;;;;1.73;1.10;;;19.20;51.00;;;;;;4905006;29;20487;-73
2022/11/17 10:59:51;;;;;;;3.63;1.15;;;19.20;51.10;;;;;;4923403;29;20127;-75
2022/11/17 11:02:35;;;;;;;1.83;1.23;;;19.20;51.00;;;;;;4908707;29;20476;-74
2022/11/17 11:05:09;;;;;;;2.05;1.20;;;19.20;51.00;;;;;;4931598;29;20106;-74
2022/11/17 11:07:35;;;;;;;1.35;1.00;;;19.20;51.00;;;;;;4907426;29;20062;-73
2022/11/17 11:10:26;;;;;;;0.90;0.80;;;19.20;51.00;;;;;;4931106;29;20048;-74
2022/11/17 11:13:30;;;;;;;1.33;0.90;;;19.30;51.00;;;;;;4911086;29;20844;-72
2022/11/17 11:15:56;;;;;;;1.50;0.73;;;19.20;50.90;;;;;;4902294;29;20087;-73
2022/11/17 11:18:22;;;;;;;1.38;1.05;;;19.30;51.00;;;;;;4922362;29;20040;-74
2022/11/17 11:21:12;;;;;;;1.10;1.00;;;19.30;51.00;;;;;;4910635;29;20115;-74
2022/11/17 11:23:56;;;;;;;1.27;1.00;;;19.20;50.90;;;;;;4908242;29;20092;-74
2022/11/17 11:26:42;;;;;;;2.72;1.02;;;19.30;51.00;;;;;;4896648;29;20055;-73
2022/11/17 11:29:28;;;;;;;1.40;1.00;;;19.30;51.00;;;;;;4901997;29;20039;-72
2022/11/17 11:32:35;;;;;;;1.55;1.10;;;19.30;50.90;;;;;;4915535;29;20057;-70
2022/11/17 11:35:22;;;;;;;0.80;0.73;;;19.20;51.00;;;;;;4919292;29;20403;-73
2022/11/17 11:38:04;;;;;;;1.15;1.02;;;19.30;51.00;;;;;;4898622;29;20496;-74
2022/11/17 11:40:43;;;;;;;1.73;0.90;;;19.30;51.10;;;;;;4905741;29;20055;-73
2022/11/17 11:43:56;;;;;;;1.65;1.02;;;19.30;51.10;;;;;;4896676;29;20574;-72
2022/11/17 11:46:51;;;;;;;1.55;0.90;;;19.20;51.10;;;;;;4850813;29;20055;-74
2022/11/17 11:49:46;;;;;;;1.33;0.90;;;19.30;51.20;;;;;;4848408;29;20109;-74
2022/11/17 11:52:30;;;;;;;2.78;1.10;;;19.30;51.20;;;;;;4899124;29;20072;-69
2022/11/17 11:55:00;;;;;;;1.92;0.90;;;19.30;51.20;;;;;;4920404;29;20095;-73
2022/11/17 11:57:37;;;;;;;2.08;1.20;;;19.30;51.20;;;;;;4901243;29;20839;-74
2022/11/17 12:00:06;;;;;;;0.98;0.88;;;19.30;51.20;;;;;;4919304;29;20055;-71
2022/11/17 12:02:52;;;;;;;1.38;1.10;;;19.30;51.30;;;;;;4909004;29;20239;-70
2022/11/17 12:05:24;;;;;;;1.25;0.80;;;19.30;51.30;;;;;;4933227;29;20500;-71
2022/11/17 12:07:54;;;;;;;4.13;0.90;;;19.30;51.30;;;;;;4908752;29;20212;-73
2022/11/17 12:10:47;;;;;;;1.13;0.90;;;19.30;51.30;;;;;;4905022;29;20051;-71
2022/11/17 12:13:17;;;;;;;1.08;0.98;;;19.30;51.30;;;;;;4898631;29;20119;-73
2022/11/17 12:15:42;;;;;;;1.92;1.00;;;19.30;51.30;;;;;;4931651;29;20083;-73
2022/11/17 12:18:17;;;;;;;3.10;1.00;;;19.30;51.30;;;;;;4899140;29;20095;-72
2022/11/17 12:21:03;;;;;;;1.70;0.90;;;19.30;51.30;;;;;;4898938;29;20099;-76
2022/11/17 12:23:57;;;;;;;1.10;0.90;;;19.30;51.30;;;;;;4907663;29;20087;-73
2022/11/17 12:26:45;;;;;;;1.53;1.00;;;19.30;51.40;;;;;;4922259;29;20521;-71
2022/11/17 12:29:20;;;;;;;0.82;0.82;;;19.30;51.40;;;;;;4912098;29;20086;-73
2022/11/17 12:31:50;;;;;;;1.20;1.08;;;19.30;51.40;;;;;;4909303;29;20095;-72
2022/11/17 12:34:35;;;;;;;1.10;0.90;;;19.30;51.30;;;;;;4936026;29;20043;-74
2022/11/17 12:37:13;;;;;;;1.08;0.85;;;19.30;51.40;;;;;;4914122;29;20503;-72
2022/11/17 12:40:07;;;;;;;1.20;1.10;;;19.30;51.40;;;;;;4906522;29;20134;-74
2022/11/17 12:42:35;;;;;;;1.13;0.90;;;19.30;51.40;;;;;;4899842;29;20563;-73
2022/11/17 12:45:06;;;;;;;1.95;1.08;;;19.30;51.40;;;;;;4926743;29;20090;-73
2022/11/17 12:47:34;;;;;;;1.40;0.98;;;19.30;51.40;;;;;;4927091;29;20091;-71
2022/11/17 12:50:18;;;;;;;1.23;1.00;;;19.30;51.40;;;;;;4909439;29;20044;-77
2022/11/17 12:53:04;;;;;;;1.90;0.93;;;19.30;51.50;;;;;;4922600;29;20059;-70
2022/11/17 12:56:02;;;;;;;0.93;0.90;;;19.30;51.50;;;;;;4906633;29;21018;-74
2022/11/17 12:58:56;;;;;;;1.17;0.95;;;19.30;51.50;;;;;;4891464;29;20245;-74
2022/11/17 13:01:40;;;;;;;1.00;0.90;;;19.40;51.60;;;;;;4915084;29;20043;-74
2022/11/17 13:04:11;;;;;;;1.10;0.80;;;19.40;51.60;;;;;;4906706;29;20255;-74
2022/11/17 13:06:36;;;;;;;1.90;1.10;;;19.30;51.60;;;;;;4923950;29;20091;-74
2022/11/17 13:09:10;;;;;;;1.10;0.90;;;19.40;51.60;;;;;;4907631;29;20040;-75
2022/11/17 13:11:35;;;;;;;1.10;1.00;;;19.40;51.60;;;;;;4908787;29;20624;-77
2022/11/17 13:14:12;;;;;;;1.23;0.90;;;19.40;51.60;;;;;;4902723;29;20055;-76
2022/11/17 13:16:45;;;;;;;1.20;0.80;;;19.40;51.70;;;;;;4908438;29;20056;-75
2022/11/17 13:19:33;;;;;;;1.25;0.80;;;19.30;51.60;;;;;;4925911;29;20055;-68
2022/11/17 13:22:05;;;;;;;1.00;0.80;;;19.40;51.70;;;;;;4905576;29;20084;-73
2022/11/17 13:24:35;;;;;;;3.00;0.75;;;19.40;51.70;;;;;;4894000;29;20579;-71
2022/11/17 13:27:06;;;;;;;1.13;0.90;;;19.40;51.70;;;;;;4925030;29;20044;-70
2022/11/17 13:29:32;;;;;;;2.65;0.90;;;19.40;51.70;;;;;;4910054;29;20692;-71
2022/11/17 13:32:20;;;;;;;4.10;0.70;;;19.40;51.70;;;;;;4915472;29;20483;-70
2022/11/17 13:34:56;;;;;;;3.97;0.90;;;19.40;51.70;;;;;;4926859;29;20606;-72
2022/11/17 13:37:25;;;;;;;3.10;0.90;;;19.40;51.70;;;;;;4928849;29;20047;-73
2022/11/17 13:39:55;;;;;;;2.10;0.80;;;19.40;51.70;;;;;;4892257;29;20071;-72
2022/11/17 13:42:22;;;;;;;0.93;0.82;;;19.40;51.70;;;;;;4918882;29;20062;-72
2022/11/17 13:44:48;;;;;;;3.70;0.82;;;19.40;51.70;;;;;;4923579;29;20044;-71
2022/11/17 13:47:42;;;;;;;2.20;0.98;;;19.40;51.70;;;;;;4922323;29;20054;-71
2022/11/17 13:50:19;;;;;;;2.88;0.80;;;19.40;51.80;;;;;;4912817;29;20071;-72
2022/11/17 13:52:45;;;;;;;0.65;0.60;;;19.40;51.80;;;;;;4909134;29;20079;-72
2022/11/17 13:55:18;;;;;;;1.20;0.80;;;19.30;51.70;;;;;;4926217;29;20543;-72
2022/11/17 13:58:04;;;;;;;1.40;0.90;;;19.30;51.80;;;;;;4913604;29;20044;-72
2022/11/17 14:00:31;;;;;;;1.60;0.98;;;19.30;51.80;;;;;;4923414;29;20054;-72
2022/11/17 14:03:02;;;;;;;1.63;0.80;;;19.30;51.80;;;;;;4920493;29;20075;-72
2022/11/17 14:05:32;;;;;;;1.92;0.90;;;19.30;51.80;;;;;;4911814;29;20146;-72
2022/11/17 14:08:12;;;;;;;0.70;0.70;;;19.30;51.90;;;;;;4904419;29;20527;-73
2022/11/17 14:10:39;;;;;;;1.55;0.90;;;19.30;51.90;;;;;;4927167;29;20055;-71
2022/11/17 14:13:04;;;;;;;0.73;0.70;;;19.30;52.00;;;;;;4911082;29;20127;-72
2022/11/17 14:15:36;;;;;;;2.38;0.82;;;19.30;52.00;;;;;;4909833;29;20146;-70
2022/11/17 14:18:24;;;;;;;1.50;0.80;;;19.30;52.00;;;;;;4914859;29;20169;-71
2022/11/17 14:21:10;;;;;;;1.30;0.88;;;19.30;52.80;;;;;;4923233;29;20048;-75
2022/11/17 14:23:37;;;;;;;0.95;0.70;;;19.30;52.00;;;;;;4897181;29;20036;-71
2022/11/17 14:26:03;;;;;;;0.85;0.80;;;19.20;52.00;;;;;;4890121;29;20051;-72
2022/11/17 14:28:29;;;;;;;2.30;0.80;;;19.30;52.10;;;;;;4904340;29;20042;-72
2022/11/17 14:30:56;;;;;;;1.20;0.90;;;19.20;52.10;;;;;;4885012;29;20044;-68
2022/11/17 14:33:23;;;;;;;2.85;0.80;;;19.20;52.10;;;;;;4914309;29;20095;-71
2022/11/17 14:35:54;;;;;;;7.20;1.20;;;19.20;52.20;;;;;;4906172;29;20044;-70
2022/11/17 14:38:20;;;;;;;1.70;0.80;;;19.20;52.20;;;;;;4897865;29;20559;-69
2022/11/17 14:40:50;;;;;;;2.45;1.00;;;19.20;52.30;;;;;;4900984;29;20415;-72
2022/11/17 14:43:17;;;;;;;2.40;0.90;;;19.20;52.30;;;;;;4917186;29;20116;-72
2022/11/17 14:45:43;;;;;;;2.28;1.10;;;19.20;52.30;;;;;;4919114;29;20711;-72
2022/11/17 14:48:09;;;;;;;3.83;0.88;;;19.20;52.40;;;;;;4921429;29;20063;-72
2022/11/17 14:50:35;;;;;;;2.85;1.10;;;19.20;52.40;;;;;;4918136;29;20051;-71
2022/11/17 14:53:01;;;;;;;2.33;0.80;;;19.20;52.40;;;;;;4910987;29;20434;-71
2022/11/17 14:55:26;;;;;;;2.97;0.80;;;19.20;52.50;;;;;;4918726;29;20036;-74
2022/11/17 14:57:54;;;;;;;2.28;1.05;;;19.20;52.50;;;;;;4900121;29;20491;-71
2022/11/17 15:00:20;;;;;;;2.90;0.95;;;19.10;52.50;;;;;;4901366;29;20055;-73
2022/11/17 15:02:46;;;;;;;3.50;0.77;;;19.20;52.60;;;;;;4902332;29;20048;-70
2022/11/17 15:05:11;;;;;;;4.25;1.02;;;19.10;52.50;;;;;;4898370;29;20047;-74
2022/11/17 15:07:38;;;;;;;1.30;1.15;;;19.10;52.60;;;;;;4902334;29;20515;-71
2022/11/17 15:10:05;;;;;;;3.42;0.80;;;19.20;52.70;;;;;;4902598;29;20052;-72
2022/11/17 15:12:31;;;;;;;4.78;1.00;;;19.20;52.70;;;;;;4919861;29;20050;-72
2022/11/17 15:14:57;;;;;;;1.42;0.93;;;19.20;52.70;;;;;;4901275;29;20047;-69
2022/11/17 15:17:23;;;;;;;3.22;0.80;;;19.20;52.70;;;;;;4920009;29;20134;-72
2022/11/17 15:19:49;;;;;;;4.80;1.17;;;19.20;52.80;;;;;;4920872;29;20036;-73
2022/11/17 15:22:15;;;;;;;3.13;0.90;;;19.20;52.80;;;;;;4896777;29;20169;-68
2022/11/17 15:24:41;;;;;;;3.90;1.00;;;19.20;52.80;;;;;;4898544;29;20059;-70
2022/11/17 15:27:07;;;;;;;4.57;0.80;;;19.20;52.80;;;;;;4915120;29;20122;-68
2022/11/17 15:29:33;;;;;;;2.63;0.90;;;19.20;52.90;;;;;;4880922;29;20047;-69
2022/11/17 15:31:58;;;;;;;2.10;1.00;;;19.20;52.90;;;;;;4893178;29;20587;-72
2022/11/17 15:34:24;;;;;;;2.92;1.00;;;19.20;52.80;;;;;;4922743;29;20054;-71
2022/11/17 15:36:50;;;;;;;5.88;1.00;;;19.20;52.80;;;;;;4921767;29;20046;-73
2022/11/17 15:39:16;;;;;;;2.42;0.90;;;19.20;53.00;;;;;;4916683;29;20048;-73
2022/11/17 15:41:42;;;;;;;1.35;0.73;;;19.20;52.90;;;;;;4900346;29;20056;-73
2022/11/17 15:44:07;;;;;;;9.82;1.10;;;19.20;52.90;;;;;;4916639;29;20062;-74
2022/11/17 15:46:33;;;;;;;3.70;0.90;;;19.20;52.90;;;;;;4898589;29;20075;-70
2022/11/17 15:48:59;;;;;;;1.40;0.85;;;19.20;52.90;;;;;;4918621;29;20044;-71
2022/11/17 15:51:26;;;;;;;1.60;1.00;;;19.20;53.00;;;;;;4917384;29;20053;-73
2022/11/17 15:53:55;;;;;;;1.42;1.10;;;19.20;53.00;;;;;;4897737;29;20050;-73
2022/11/17 15:56:35;;;;;;;5.25;1.00;;;19.20;53.00;;;;;;4899904;29;20035;-69
2022/11/17 15:59:02;;;;;;;2.55;1.20;;;19.20;53.10;;;;;;4914333;29;20499;-71
2022/11/17 16:01:37;;;;;;;4.43;1.10;;;19.20;53.10;;;;;;4919218;29;20484;-73
2022/11/17 16:04:11;;;;;;;1.52;1.00;;;19.20;53.20;;;;;;4912652;29;20503;-72
2022/11/17 16:06:39;;;;;;;2.50;1.10;;;19.20;53.20;;;;;;4898280;29;20655;-72
2022/11/17 16:09:06;;;;;;;3.30;0.93;;;19.30;53.20;;;;;;4917116;29;20423;-72
2022/11/17 16:11:31;;;;;;;2.60;1.60;;;19.20;53.20;;;;;;4897482;29;20575;-72
2022/11/17 16:13:58;;;;;;;5.97;1.00;;;19.20;53.20;;;;;;4900274;29;20130;-72
2022/11/17 16:16:29;;;;;;;1.77;1.10;;;19.30;53.30;;;;;;4901866;29;20058;-71
2022/11/17 16:18:55;;;;;;;3.90;1.00;;;19.30;53.30;;;;;;4898290;29;20083;-72
2022/11/17 16:21:21;;;;;;;1.40;1.00;;;19.30;53.30;;;;;;4919146;29;20035;-72
2022/11/17 16:23:49;;;;;;;5.60;0.98;;;19.30;53.40;;;;;;4920921;29;20059;-72
2022/11/17 16:26:18;;;;;;;2.75;1.20;;;19.30;53.40;;;;;;4918326;29;20078;-73
2022/11/17 16:28:45;;;;;;;1.45;0.80;;;19.30;53.50;;;;;;4887725;29;20400;-72
2022/11/17 16:31:20;;;;;;;1.90;0.80;;;19.30;53.50;;;;;;4919290;29;20601;-72
2022/11/17 16:33:58;;;;;;;4.38;1.10;;;19.20;53.40;;;;;;4914397;29;20540;-73
2022/11/17 16:36:25;;;;;;;;;;;19.30;53.50;;;;;;4899005;29;20083;-73
2022/11/17 16:38:56;;;;;;;2.17;1.10;;;19.20;53.50;;;;;;4894588;29;19994;-73
2022/11/17 16:41:23;;;;;;;3.03;0.70;;;19.20;53.50;;;;;;4898649;29;20056;-72
2022/11/17 16:43:49;;;;;;;1.77;0.85;;;19.30;53.60;;;;;;4897947;29;20075;-73
2022/11/17 16:46:19;;;;;;;6.38;1.10;;;19.30;53.60;;;;;;4893948;29;20094;-71
2022/11/17 16:48:46;;;;;;;1.77;0.90;;;19.30;53.60;;;;;;4921116;29;20048;-72
2022/11/17 16:51:13;;;;;;;3.03;0.80;;;19.20;53.50;;;;;;4895873;29;20048;-73
2022/11/17 16:53:38;;;;;;;1.73;1.05;;;19.20;53.60;;;;;;4899824;29;20130;-71
2022/11/17 16:56:09;;;;;;;3.72;0.80;;;19.30;53.70;;;;;;4915221;29;20050;-73
2022/11/17 16:58:36;;;;;;;3.50;0.77;;;19.20;53.60;;;;;;4907922;29;20094;-70
2022/11/17 17:01:16;;;;;;;2.50;0.98;;;19.20;53.70;;;;;;4926668;29;20031;-72
2022/11/17 17:03:42;;;;;;;2.60;1.00;;;19.30;53.80;;;;;;4928208;29;20420;-70
2022/11/17 17:06:10;;;;;;;1.30;0.80;;;19.30;53.80;;;;;;4921400;29;20138;-71
2022/11/17 17:08:36;;;;;;;;;;;19.30;53.90;;;;;;4923481;29;20561;-73
2022/11/17 17:11:06;;;;;;;2.97;0.77;;;19.20;53.90;;;;;;4904709;29;19931;-70
2022/11/17 17:13:33;;;;;;;1.33;0.80;;;19.30;53.80;;;;;;4922596;29;20078;-73
2022/11/17 17:16:06;;;;;;;2.58;0.85;;;19.30;53.90;;;;;;4899985;29;20694;-72
2022/11/17 17:18:32;;;;;;;2.85;0.88;;;19.30;54.00;;;;;;4902944;29;20055;-71
2022/11/17 17:20:57;;;;;;;1.63;0.95;;;19.30;54.00;;;;;;4900029;29;20040;-72
2022/11/17 17:23:23;;;;;;;2.83;0.90;;;19.30;54.00;;;;;;4923626;29;20036;-74
2022/11/17 17:26:09;;;;;;;2.65;0.90;;;19.30;54.10;;;;;;4919759;29;20131;-74
2022/11/17 17:28:39;;;;;;;2.40;0.90;;;19.20;54.10;;;;;;4899886;29;20154;-72
2022/11/17 17:31:06;;;;;;;1.95;1.30;;;19.20;54.10;;;;;;4919886;29;20051;-72
2022/11/17 17:33:34;;;;;;;16.40;6.82;;;19.30;54.20;;;;;;4899527;29;20051;-74
2022/11/17 17:36:08;;;;;;;33.38;15.00;;;19.30;54.30;;;;;;4898229;29;20036;-73
2022/11/17 17:38:34;;;;;;;39.58;19.50;;;19.20;54.40;;;;;;4915689;29;20103;-71
2022/11/17 17:41:17;;;;;;;55.20;23.65;;;19.20;54.30;;;;;;4919720;29;20043;-73
2022/11/17 17:43:44;;;;;;;75.07;28.85;;;19.20;54.60;;;;;;4901274;29;20721;-74
2022/11/17 17:46:15;;;;;;;76.72;28.85;;;19.30;54.60;;;;;;4900419;29;20146;-72
2022/11/17 17:48:43;;;;;;;84.35;30.67;;;19.30;55.60;;;;;;4890180;29;20238;-73
2022/11/17 17:51:15;;;;;;;80.93;31.55;;;19.20;55.80;;;;;;4918379;29;20051;-69
2022/11/17 17:53:41;;;;;;;82.50;30.02;;;19.30;55.50;;;;;;4919633;29;20048;-72
2022/11/17 17:56:12;;;;;;;82.45;31.40;;;19.30;55.90;;;;;;4917866;29;20044;-72
2022/11/17 17:58:41;;;;;;;79.25;30.30;;;19.30;56.40;;;;;;4918829;29;20039;-70
2022/11/17 18:01:11;;;;;;;83.18;29.15;;;19.30;56.60;;;;;;4916067;29;20086;-72
2022/11/17 18:03:38;;;;;;;73.00;28.73;;;19.30;56.70;;;;;;4904482;29;20193;-73
2022/11/17 18:06:04;;;;;;;71.00;26.80;;;19.30;56.90;;;;;;4904320;29;20036;-71
2022/11/17 18:08:34;;;;;;;72.13;26.38;;;19.30;56.90;;;;;;4903552;29;20040;-70
2022/11/17 18:11:01;;;;;;;71.57;25.65;;;19.40;57.50;;;;;;4921460;29;20096;-71
2022/11/17 18:13:36;;;;;;;62.22;25.38;;;19.30;57.00;;;;;;4903003;29;20506;-71
2022/11/17 18:16:04;;;;;;;65.60;23.45;;;19.30;57.10;;;;;;4896122;29;20179;-70
2022/11/17 18:18:29;;;;;;;60.60;23.55;;;19.40;57.10;;;;;;4919151;29;20052;-68
2022/11/17 18:21:02;;;;;;;61.05;22.63;;;19.30;57.00;;;;;;4917643;29;20032;-68
2022/11/17 18:23:29;;;;;;;66.38;23.13;;;19.40;57.10;;;;;;4919061;29;20052;-69
2022/11/17 18:26:05;;;;;;;58.22;20.92;;;19.30;57.00;;;;;;4902398;29;20517;-70
2022/11/17 18:28:38;;;;;;;64.43;22.35;;;19.30;57.00;;;;;;4902067;29;20043;-75
2022/11/17 18:31:04;;;;;;;63.47;20.55;;;19.40;57.00;;;;;;4922360;29;20887;-73
2022/11/17 18:33:30;;;;;;;53.15;20.05;;;19.30;56.90;;;;;;4899168;29;20138;-72
2022/11/17 18:36:00;;;;;;;48.35;19.77;;;19.40;57.00;;;;;;4882174;29;20403;-73
2022/11/17 18:38:26;;;;;;;47.10;18.02;;;19.30;56.90;;;;;;4922364;29;20051;-70
2022/11/17 18:41:12;;;;;;;45.88;16.73;;;19.40;57.00;;;;;;4917987;29;20039;-73
2022/11/17 18:43:39;;;;;;;47.50;16.98;;;19.40;57.00;;;;;;4899007;29;20098;-68
2022/11/17 18:46:08;;;;;;;44.92;17.05;;;19.30;56.90;;;;;;4914778;29;20044;-72
2022/11/17 18:48:37;;;;;;;38.72;15.65;;;19.30;56.90;;;;;;4916592;29;20934;-72
2022/11/17 18:51:05;;;;;;;40.80;16.15;;;19.30;56.90;;;;;;4901789;29;20048;-73
2022/11/17 18:53:32;;;;;;;40.25;14.32;;;19.30;56.90;;;;;;4900741;29;20687;-73
2022/11/17 18:56:03;;;;;;;42.67;15.43;;;19.30;56.90;;;;;;4898444;29;20072;-69
2022/11/17 18:58:28;;;;;;;38.95;14.65;;;19.30;56.90;;;;;;4913420;29;20041;-70
2022/11/17 19:00:55;;;;;;;40.80;14.13;;;19.30;56.90;;;;;;4895057;29;20043;-71
2022/11/17 19:03:22;;;;;;;36.17;12.60;;;19.30;56.90;;;;;;4920552;29;20055;-70
2022/11/17 19:05:47;;;;;;;32.53;12.43;;;19.30;57.00;;;;;;4920931;29;20028;-73
2022/11/17 19:08:13;;;;;;;40.75;12.55;;;19.30;57.00;;;;;;4903173;29;20050;-71
2022/11/17 19:10:39;;;;;;;32.88;13.10;;;19.30;57.10;;;;;;4898968;29;20067;-71
2022/11/17 19:13:05;;;;;;;39.75;11.98;;;19.30;57.20;;;;;;4902063;29;20055;-72
2022/11/17 19:15:30;;;;;;;34.08;12.45;;;19.30;57.20;;;;;;4902610;29;20058;-71
2022/11/17 19:17:56;;;;;;;34.22;11.80;;;19.30;57.20;;;;;;4921651;29;20075;-71
2022/11/17 19:20:23;;;;;;;32.95;12.27;;;19.20;57.20;;;;;;4921985;29;20578;-71
2022/11/17 19:22:49;;;;;;;40.97;12.07;;;19.30;57.30;;;;;;4900574;29;20051;-72
2022/11/17 19:25:15;;;;;;;23.98;10.07;;;19.20;57.20;;;;;;4905069;29;20413;-72
2022/11/17 19:27:40;;;;;;;26.92;11.15;;;19.20;57.20;;;;;;4900147;29;20142;-71
2022/11/17 19:30:07;;;;;;;33.92;11.18;;;19.30;58.10;;;;;;4922022;29;20130;-72
2022/11/17 19:32:32;;;;;;;25.85;10.75;;;19.20;57.20;;;;;;4902199;29;20040;-71
2022/11/17 19:34:58;;;;;;;24.25;10.50;;;19.20;57.20;;;;;;4909996;29;20558;-72
2022/11/17 19:37:24;;;;;;;28.75;10.57;;;19.30;57.20;;;;;;4904428;29;20047;-69
2022/11/17 19:39:49;;;;;;;24.08;9.65;;;19.30;57.20;;;;;;4918803;29;20036;-70
2022/11/17 19:42:15;;;;;;;27.05;9.75;;;19.20;57.20;;;;;;4904665;29;20052;-72
2022/11/17 19:44:40;;;;;;;25.65;10.02;;;19.20;57.10;;;;;;4921355;29;20050;-72
2022/11/17 19:47:06;;;;;;;27.08;9.63;;;19.20;57.10;;;;;;4904113;29;20039;-72
2022/11/17 19:49:31;;;;;;;25.23;9.68;;;19.20;57.10;;;;;;4920380;29;20039;-72
2022/11/17 19:51:57;;;;;;;25.52;9.30;;;19.20;57.20;;;;;;4905067;29;20186;-71
2022/11/17 19:54:23;;;;;;;21.15;8.18;;;19.20;57.10;;;;;;4902531;29;20078;-69
2022/11/17 19:56:48;;;;;;;24.33;8.23;;;19.20;57.10;;;;;;4918576;29;20089;-69
2022/11/17 19:59:14;;;;;;;25.38;9.18;;;19.20;57.10;;;;;;4904505;29;20397;-72
2022/11/17 20:01:39;;;;;;;22.88;8.25;;;19.20;57.10;;;;;;4919651;29;20043;-69
2022/11/17 20:04:06;;;;;;;19.92;7.63;;;19.20;57.10;;;;;;4919559;29;20043;-71
2022/11/17 20:06:36;;;;;;;21.73;7.85;;;19.20;57.10;;;;;;4902294;29;20066;-73
2022/11/17 20:09:12;;;;;;;17.05;7.00;;;19.20;57.10;;;;;;4919914;29;20054;-72
2022/11/17 20:11:38;;;;;;;19.38;7.75;;;19.10;57.00;;;;;;4921591;29;20055;-71
2022/11/17 20:14:04;;;;;;;18.95;7.35;;;19.10;57.00;;;;;;4901941;29;20083;-71
2022/11/17 20:16:30;;;;;;;16.38;7.40;;;19.20;57.10;;;;;;4900770;29;20052;-70
2022/11/17 20:18:59;;;;;;;20.10;6.93;;;19.10;57.10;;;;;;4921586;29;20059;-71